sensor_id;sensor_type;location;lat;lon;timestamp;P1;durP1;ratioP1;P2;durP2;ratioP2
37701;SDS011;23548;51.196;6.838;2023-06-22T00:01:58;6.95;;;4.63;;
37701;SDS011;23548;51.196;6.838;2023-06-22T00:04:24;9.00;;;3.95;;
37701;SDS011;23548;51.196;6.838;2023-06-22T00:06:50;8.02;;;3.97;;
37701;SDS011;23548;51.196;6.838;2023-06-22T00:09:16;4.60;;;4.13;;
37701;SDS011;23548;51.196;6.838;2023-06-22T00:11:41;7.22;;;4.30;;
37701;SDS011;23548;51.196;6.838;2023-06-22T00:14:07;6.38;;;4.50;;
37701;SDS011;23548;51.196;6.838;2023-06-22T00:16:33;8.48;;;4.22;;
37701;SDS011;23548;51.196;6.838;2023-06-22T00:18:59;5.68;;;4.22;;
37701;SDS011;23548;51.196;6.838;2023-06-22T00:21:26;5.63;;;4.18;;
37701;SDS011;23548;51.196;6.838;2023-06-22T00:23:53;7.72;;;4.43;;
37701;SDS011;23548;51.196;6.838;2023-06-22T00:26:19;8.23;;;4.38;;
37701;SDS011;23548;51.196;6.838;2023-06-22T00:28:45;6.60;;;4.20;;
37701;SDS011;23548;51.196;6.838;2023-06-22T00:31:11;7.32;;;3.92;;
37701;SDS011;23548;51.196;6.838;2023-06-22T00:33:37;5.68;;;3.95;;
37701;SDS011;23548;51.196;6.838;2023-06-22T00:36:03;7.20;;;3.95;;
37701;SDS011;23548;51.196;6.838;2023-06-22T00:38:29;7.57;;;3.88;;
37701;SDS011;23548;51.196;6.838;2023-06-22T00:40:55;6.28;;;3.83;;
37701;SDS011;23548;51.196;6.838;2023-06-22T00:43:20;5.57;;;3.83;;
37701;SDS011;23548;51.196;6.838;2023-06-22T00:45:46;6.65;;;4.05;;
37701;SDS011;23548;51.196;6.838;2023-06-22T00:48:13;6.57;;;4.10;;
37701;SDS011;23548;51.196;6.838;2023-06-22T00:50:39;7.03;;;3.78;;
37701;SDS011;23548;51.196;6.838;2023-06-22T00:53:06;7.45;;;4.38;;
37701;SDS011;23548;51.196;6.838;2023-06-22T00:55:37;6.18;;;3.88;;
37701;SDS011;23548;51.196;6.838;2023-06-22T00:58:08;11.75;;;4.53;;
37701;SDS011;23548;51.196;6.838;2023-06-22T01:00:35;8.30;;;4.60;;
37701;SDS011;23548;51.196;6.838;2023-06-22T01:03:02;7.10;;;4.55;;
37701;SDS011;23548;51.196;6.838;2023-06-22T01:05:29;6.80;;;4.80;;
37701;SDS011;23548;51.196;6.838;2023-06-22T01:10:40;6.50;;;5.22;;
37701;SDS011;23548;51.196;6.838;2023-06-22T01:16:00;11.43;;;4.95;;
37701;SDS011;23548;51.196;6.838;2023-06-22T01:18:30;9.20;;;5.45;;
37701;SDS011;23548;51.196;6.838;2023-06-22T01:21:01;7.85;;;5.55;;
37701;SDS011;23548;51.196;6.838;2023-06-22T01:23:37;8.23;;;5.68;;
37701;SDS011;23548;51.196;6.838;2023-06-22T01:31:18;8.50;;;5.60;;
37701;SDS011;23548;51.196;6.838;2023-06-22T01:33:55;9.27;;;6.60;;
37701;SDS011;23548;51.196;6.838;2023-06-22T01:36:24;7.38;;;6.15;;
37701;SDS011;23548;51.196;6.838;2023-06-22T01:38:50;11.07;;;6.32;;
37701;SDS011;23548;51.196;6.838;2023-06-22T01:41:17;8.80;;;6.95;;
37701;SDS011;23548;51.196;6.838;2023-06-22T01:43:47;9.32;;;6.97;;
37701;SDS011;23548;51.196;6.838;2023-06-22T01:46:14;9.77;;;7.00;;
37701;SDS011;23548;51.196;6.838;2023-06-22T01:48:40;10.27;;;7.32;;
37701;SDS011;23548;51.196;6.838;2023-06-22T01:54:12;12.85;;;6.80;;
37701;SDS011;23548;51.196;6.838;2023-06-22T01:56:38;11.40;;;7.78;;
37701;SDS011;23548;51.196;6.838;2023-06-22T01:59:07;9.70;;;7.93;;
37701;SDS011;23548;51.196;6.838;2023-06-22T02:01:45;9.13;;;7.57;;
37701;SDS011;23548;51.196;6.838;2023-06-22T02:04:20;8.65;;;7.72;;
37701;SDS011;23548;51.196;6.838;2023-06-22T02:06:51;9.82;;;7.93;;
37701;SDS011;23548;51.196;6.838;2023-06-22T02:09:21;9.52;;;7.07;;
37701;SDS011;23548;51.196;6.838;2023-06-22T02:11:48;9.45;;;7.82;;
37701;SDS011;23548;51.196;6.838;2023-06-22T02:14:19;13.43;;;8.50;;
37701;SDS011;23548;51.196;6.838;2023-06-22T02:16:47;11.77;;;8.07;;
37701;SDS011;23548;51.196;6.838;2023-06-22T02:19:13;10.63;;;8.25;;
37701;SDS011;23548;51.196;6.838;2023-06-22T02:21:45;9.57;;;8.05;;
37701;SDS011;23548;51.196;6.838;2023-06-22T02:24:11;10.35;;;7.80;;
37701;SDS011;23548;51.196;6.838;2023-06-22T02:26:37;12.15;;;8.25;;
37701;SDS011;23548;51.196;6.838;2023-06-22T02:29:10;11.00;;;8.10;;
37701;SDS011;23548;51.196;6.838;2023-06-22T02:31:35;9.40;;;8.02;;
37701;SDS011;23548;51.196;6.838;2023-06-22T02:34:01;9.65;;;8.32;;
37701;SDS011;23548;51.196;6.838;2023-06-22T02:36:27;10.85;;;7.82;;
37701;SDS011;23548;51.196;6.838;2023-06-22T02:38:55;10.98;;;8.23;;
37701;SDS011;23548;51.196;6.838;2023-06-22T02:41:26;9.00;;;7.43;;
37701;SDS011;23548;51.196;6.838;2023-06-22T02:43:52;13.18;;;9.00;;
37701;SDS011;23548;51.196;6.838;2023-06-22T02:46:17;11.52;;;8.30;;
37701;SDS011;23548;51.196;6.838;2023-06-22T02:48:43;12.20;;;7.93;;
37701;SDS011;23548;51.196;6.838;2023-06-22T02:51:09;9.35;;;8.13;;
37701;SDS011;23548;51.196;6.838;2023-06-22T02:53:35;9.75;;;8.77;;
37701;SDS011;23548;51.196;6.838;2023-06-22T02:56:03;15.00;;;8.60;;
37701;SDS011;23548;51.196;6.838;2023-06-22T02:58:32;10.52;;;8.40;;
37701;SDS011;23548;51.196;6.838;2023-06-22T03:01:03;10.35;;;8.05;;
37701;SDS011;23548;51.196;6.838;2023-06-22T03:03:30;9.43;;;8.15;;
37701;SDS011;23548;51.196;6.838;2023-06-22T03:05:56;12.60;;;8.70;;
37701;SDS011;23548;51.196;6.838;2023-06-22T03:08:21;11.77;;;8.40;;
37701;SDS011;23548;51.196;6.838;2023-06-22T03:10:47;16.23;;;8.20;;
37701;SDS011;23548;51.196;6.838;2023-06-22T03:13:13;12.73;;;8.15;;
37701;SDS011;23548;51.196;6.838;2023-06-22T03:15:38;10.60;;;8.48;;
37701;SDS011;23548;51.196;6.838;2023-06-22T03:18:04;10.48;;;7.80;;
37701;SDS011;23548;51.196;6.838;2023-06-22T03:20:30;11.10;;;8.57;;
37701;SDS011;23548;51.196;6.838;2023-06-22T03:22:58;9.93;;;7.95;;
37701;SDS011;23548;51.196;6.838;2023-06-22T03:25:24;10.75;;;8.52;;
37701;SDS011;23548;51.196;6.838;2023-06-22T03:27:50;12.95;;;8.20;;
37701;SDS011;23548;51.196;6.838;2023-06-22T03:30:16;10.82;;;8.70;;
37701;SDS011;23548;51.196;6.838;2023-06-22T03:32:41;12.10;;;8.65;;
37701;SDS011;23548;51.196;6.838;2023-06-22T03:35:08;13.73;;;8.43;;
37701;SDS011;23548;51.196;6.838;2023-06-22T03:37:37;12.55;;;9.05;;
37701;SDS011;23548;51.196;6.838;2023-06-22T03:40:03;12.13;;;8.95;;
37701;SDS011;23548;51.196;6.838;2023-06-22T03:42:30;13.38;;;8.68;;
37701;SDS011;23548;51.196;6.838;2023-06-22T03:44:56;9.77;;;8.32;;
37701;SDS011;23548;51.196;6.838;2023-06-22T03:47:22;16.58;;;9.57;;
37701;SDS011;23548;51.196;6.838;2023-06-22T03:49:48;12.50;;;8.95;;
37701;SDS011;23548;51.196;6.838;2023-06-22T03:52:14;10.48;;;8.18;;
37701;SDS011;23548;51.196;6.838;2023-06-22T03:54:40;11.05;;;8.50;;
37701;SDS011;23548;51.196;6.838;2023-06-22T03:57:05;12.18;;;8.05;;
37701;SDS011;23548;51.196;6.838;2023-06-22T03:59:31;11.43;;;7.78;;
37701;SDS011;23548;51.196;6.838;2023-06-22T04:01:57;11.50;;;8.68;;
37701;SDS011;23548;51.196;6.838;2023-06-22T04:04:23;10.95;;;8.48;;
37701;SDS011;23548;51.196;6.838;2023-06-22T04:06:48;8.85;;;7.68;;
37701;SDS011;23548;51.196;6.838;2023-06-22T04:09:14;12.07;;;7.65;;
37701;SDS011;23548;51.196;6.838;2023-06-22T04:11:40;11.65;;;7.93;;
37701;SDS011;23548;51.196;6.838;2023-06-22T04:14:06;13.02;;;8.27;;
37701;SDS011;23548;51.196;6.838;2023-06-22T04:16:31;10.10;;;7.25;;
37701;SDS011;23548;51.196;6.838;2023-06-22T04:18:58;12.80;;;8.00;;
37701;SDS011;23548;51.196;6.838;2023-06-22T04:21:24;10.00;;;7.75;;
37701;SDS011;23548;51.196;6.838;2023-06-22T04:23:50;9.02;;;7.72;;
37701;SDS011;23548;51.196;6.838;2023-06-22T04:26:15;10.02;;;8.07;;
37701;SDS011;23548;51.196;6.838;2023-06-22T04:28:41;11.93;;;8.23;;
37701;SDS011;23548;51.196;6.838;2023-06-22T04:31:07;10.85;;;7.68;;
37701;SDS011;23548;51.196;6.838;2023-06-22T04:33:33;9.75;;;7.43;;
37701;SDS011;23548;51.196;6.838;2023-06-22T04:35:58;12.18;;;7.63;;
37701;SDS011;23548;51.196;6.838;2023-06-22T04:38:29;10.85;;;7.22;;
37701;SDS011;23548;51.196;6.838;2023-06-22T04:40:58;12.35;;;7.72;;
37701;SDS011;23548;51.196;6.838;2023-06-22T04:43:26;14.38;;;7.55;;
37701;SDS011;23548;51.196;6.838;2023-06-22T04:45:55;10.68;;;7.50;;
37701;SDS011;23548;51.196;6.838;2023-06-22T04:48:28;13.20;;;7.45;;
37701;SDS011;23548;51.196;6.838;2023-06-22T04:50:58;13.02;;;7.70;;
37701;SDS011;23548;51.196;6.838;2023-06-22T04:53:28;14.95;;;8.13;;
37701;SDS011;23548;51.196;6.838;2023-06-22T04:55:55;11.57;;;8.38;;
37701;SDS011;23548;51.196;6.838;2023-06-22T04:58:21;8.95;;;7.78;;
37701;SDS011;23548;51.196;6.838;2023-06-22T05:00:47;12.55;;;8.48;;
37701;SDS011;23548;51.196;6.838;2023-06-22T05:03:13;14.18;;;8.65;;
37701;SDS011;23548;51.196;6.838;2023-06-22T05:05:38;15.88;;;8.05;;
37701;SDS011;23548;51.196;6.838;2023-06-22T05:08:04;13.07;;;8.10;;
37701;SDS011;23548;51.196;6.838;2023-06-22T05:10:32;12.05;;;7.95;;
37701;SDS011;23548;51.196;6.838;2023-06-22T05:12:58;10.27;;;7.82;;
37701;SDS011;23548;51.196;6.838;2023-06-22T05:15:24;13.82;;;8.00;;
37701;SDS011;23548;51.196;6.838;2023-06-22T05:17:53;11.05;;;7.55;;
37701;SDS011;23548;51.196;6.838;2023-06-22T05:20:19;18.85;;;8.07;;
37701;SDS011;23548;51.196;6.838;2023-06-22T05:22:44;16.27;;;8.60;;
37701;SDS011;23548;51.196;6.838;2023-06-22T05:25:10;13.60;;;7.95;;
37701;SDS011;23548;51.196;6.838;2023-06-22T05:27:37;11.38;;;7.85;;
37701;SDS011;23548;51.196;6.838;2023-06-22T05:30:07;12.80;;;7.88;;
37701;SDS011;23548;51.196;6.838;2023-06-22T05:32:34;19.45;;;8.27;;
37701;SDS011;23548;51.196;6.838;2023-06-22T05:35:02;15.25;;;9.15;;
37701;SDS011;23548;51.196;6.838;2023-06-22T05:37:28;15.73;;;8.82;;
37701;SDS011;23548;51.196;6.838;2023-06-22T05:39:54;9.63;;;8.05;;
37701;SDS011;23548;51.196;6.838;2023-06-22T05:42:20;13.70;;;9.27;;
37701;SDS011;23548;51.196;6.838;2023-06-22T05:44:46;19.92;;;10.63;;
37701;SDS011;23548;51.196;6.838;2023-06-22T05:47:12;18.35;;;11.30;;
37701;SDS011;23548;51.196;6.838;2023-06-22T05:49:38;16.58;;;11.15;;
37701;SDS011;23548;51.196;6.838;2023-06-22T05:52:04;14.70;;;10.52;;
37701;SDS011;23548;51.196;6.838;2023-06-22T05:54:30;12.48;;;10.32;;
37701;SDS011;23548;51.196;6.838;2023-06-22T05:56:56;11.55;;;9.60;;
37701;SDS011;23548;51.196;6.838;2023-06-22T05:59:22;14.68;;;10.25;;
37701;SDS011;23548;51.196;6.838;2023-06-22T06:01:47;18.15;;;9.52;;
37701;SDS011;23548;51.196;6.838;2023-06-22T06:04:17;17.20;;;9.50;;
37701;SDS011;23548;51.196;6.838;2023-06-22T06:06:43;16.38;;;9.40;;
37701;SDS011;23548;51.196;6.838;2023-06-22T06:09:09;10.90;;;9.15;;
37701;SDS011;23548;51.196;6.838;2023-06-22T06:11:36;16.92;;;10.27;;
37701;SDS011;23548;51.196;6.838;2023-06-22T06:14:02;14.60;;;11.20;;
37701;SDS011;23548;51.196;6.838;2023-06-22T06:16:28;20.25;;;10.88;;
37701;SDS011;23548;51.196;6.838;2023-06-22T06:18:54;13.60;;;10.35;;
37701;SDS011;23548;51.196;6.838;2023-06-22T06:21:21;13.38;;;9.75;;
37701;SDS011;23548;51.196;6.838;2023-06-22T06:23:47;20.23;;;10.57;;
37701;SDS011;23548;51.196;6.838;2023-06-22T06:26:14;17.30;;;10.10;;
37701;SDS011;23548;51.196;6.838;2023-06-22T06:28:42;12.38;;;9.73;;
37701;SDS011;23548;51.196;6.838;2023-06-22T06:31:08;14.90;;;9.98;;
37701;SDS011;23548;51.196;6.838;2023-06-22T06:33:35;17.23;;;9.95;;
37701;SDS011;23548;51.196;6.838;2023-06-22T06:36:01;16.55;;;10.45;;
37701;SDS011;23548;51.196;6.838;2023-06-22T06:38:29;16.25;;;10.32;;
37701;SDS011;23548;51.196;6.838;2023-06-22T06:40:55;14.60;;;10.98;;
37701;SDS011;23548;51.196;6.838;2023-06-22T06:43:21;13.55;;;11.30;;
37701;SDS011;23548;51.196;6.838;2023-06-22T06:45:48;13.80;;;10.68;;
37701;SDS011;23548;51.196;6.838;2023-06-22T06:48:14;18.90;;;12.18;;
37701;SDS011;23548;51.196;6.838;2023-06-22T06:50:40;24.88;;;12.77;;
37701;SDS011;23548;51.196;6.838;2023-06-22T06:53:06;16.98;;;12.35;;
37701;SDS011;23548;51.196;6.838;2023-06-22T06:55:32;18.23;;;12.23;;
37701;SDS011;23548;51.196;6.838;2023-06-22T06:58:01;27.15;;;13.80;;
37701;SDS011;23548;51.196;6.838;2023-06-22T07:00:29;21.45;;;13.32;;
37701;SDS011;23548;51.196;6.838;2023-06-22T07:02:55;17.67;;;12.95;;
37701;SDS011;23548;51.196;6.838;2023-06-22T07:05:20;24.42;;;13.50;;
37701;SDS011;23548;51.196;6.838;2023-06-22T07:07:46;30.67;;;15.40;;
37701;SDS011;23548;51.196;6.838;2023-06-22T07:10:12;31.73;;;16.15;;
37701;SDS011;23548;51.196;6.838;2023-06-22T07:12:38;22.35;;;14.85;;
37701;SDS011;23548;51.196;6.838;2023-06-22T07:15:04;28.48;;;16.40;;
37701;SDS011;23548;51.196;6.838;2023-06-22T07:17:33;21.98;;;16.38;;
37701;SDS011;23548;51.196;6.838;2023-06-22T07:20:01;29.92;;;18.70;;
37701;SDS011;23548;51.196;6.838;2023-06-22T07:22:32;23.95;;;18.17;;
37701;SDS011;23548;51.196;6.838;2023-06-22T07:24:58;24.08;;;17.75;;
37701;SDS011;23548;51.196;6.838;2023-06-22T07:27:24;28.20;;;17.42;;
37701;SDS011;23548;51.196;6.838;2023-06-22T07:29:50;28.00;;;19.73;;
37701;SDS011;23548;51.196;6.838;2023-06-22T07:32:15;25.52;;;18.67;;
37701;SDS011;23548;51.196;6.838;2023-06-22T07:34:41;30.92;;;17.95;;
37701;SDS011;23548;51.196;6.838;2023-06-22T07:37:07;21.55;;;16.42;;
37701;SDS011;23548;51.196;6.838;2023-06-22T07:39:33;22.98;;;16.92;;
37701;SDS011;23548;51.196;6.838;2023-06-22T07:41:59;21.17;;;16.58;;
37701;SDS011;23548;51.196;6.838;2023-06-22T07:44:25;23.35;;;17.08;;
37701;SDS011;23548;51.196;6.838;2023-06-22T07:46:51;24.67;;;17.90;;
37701;SDS011;23548;51.196;6.838;2023-06-22T07:49:17;19.85;;;16.30;;
37701;SDS011;23548;51.196;6.838;2023-06-22T07:51:43;22.60;;;16.80;;
37701;SDS011;23548;51.196;6.838;2023-06-22T07:54:09;21.13;;;15.27;;
37701;SDS011;23548;51.196;6.838;2023-06-22T07:56:36;21.75;;;16.65;;
37701;SDS011;23548;51.196;6.838;2023-06-22T07:59:02;25.40;;;17.15;;
37701;SDS011;23548;51.196;6.838;2023-06-22T08:01:28;21.90;;;15.52;;
37701;SDS011;23548;51.196;6.838;2023-06-22T08:03:54;21.60;;;14.48;;
37701;SDS011;23548;51.196;6.838;2023-06-22T08:06:20;19.83;;;14.32;;
37701;SDS011;23548;51.196;6.838;2023-06-22T08:08:46;23.33;;;15.85;;
37701;SDS011;23548;51.196;6.838;2023-06-22T08:11:13;24.40;;;15.63;;
37701;SDS011;23548;51.196;6.838;2023-06-22T08:13:39;19.05;;;14.48;;
37701;SDS011;23548;51.196;6.838;2023-06-22T08:16:06;19.42;;;15.57;;
37701;SDS011;23548;51.196;6.838;2023-06-22T08:18:32;20.98;;;14.43;;
37701;SDS011;23548;51.196;6.838;2023-06-22T08:20:58;15.95;;;14.30;;
37701;SDS011;23548;51.196;6.838;2023-06-22T08:23:24;18.63;;;14.02;;
37701;SDS011;23548;51.196;6.838;2023-06-22T08:25:49;16.42;;;14.60;;
37701;SDS011;23548;51.196;6.838;2023-06-22T08:28:16;16.30;;;14.60;;
37701;SDS011;23548;51.196;6.838;2023-06-22T08:30:42;16.70;;;14.23;;
37701;SDS011;23548;51.196;6.838;2023-06-22T08:33:08;20.27;;;13.68;;
37701;SDS011;23548;51.196;6.838;2023-06-22T08:35:34;17.80;;;13.50;;
37701;SDS011;23548;51.196;6.838;2023-06-22T08:37:59;15.25;;;11.80;;
37701;SDS011;23548;51.196;6.838;2023-06-22T08:40:27;13.10;;;11.70;;
37701;SDS011;23548;51.196;6.838;2023-06-22T08:42:54;18.38;;;12.95;;
37701;SDS011;23548;51.196;6.838;2023-06-22T08:45:20;15.82;;;11.98;;
37701;SDS011;23548;51.196;6.838;2023-06-22T08:47:46;14.27;;;11.80;;
37701;SDS011;23548;51.196;6.838;2023-06-22T08:50:12;13.63;;;11.60;;
37701;SDS011;23548;51.196;6.838;2023-06-22T08:52:39;13.18;;;11.63;;
37701;SDS011;23548;51.196;6.838;2023-06-22T08:55:08;13.15;;;10.43;;
37701;SDS011;23548;51.196;6.838;2023-06-22T08:57:35;16.50;;;10.98;;
37701;SDS011;23548;51.196;6.838;2023-06-22T09:00:04;11.55;;;10.23;;
37701;SDS011;23548;51.196;6.838;2023-06-22T09:02:41;13.27;;;10.55;;
37701;SDS011;23548;51.196;6.838;2023-06-22T09:05:11;12.10;;;10.60;;
37701;SDS011;23548;51.196;6.838;2023-06-22T09:07:37;11.60;;;10.40;;
37701;SDS011;23548;51.196;6.838;2023-06-22T09:10:03;11.85;;;10.57;;
37701;SDS011;23548;51.196;6.838;2023-06-22T09:12:30;12.68;;;10.50;;
37701;SDS011;23548;51.196;6.838;2023-06-22T09:14:57;13.02;;;10.85;;
37701;SDS011;23548;51.196;6.838;2023-06-22T09:17:25;13.38;;;10.20;;
37701;SDS011;23548;51.196;6.838;2023-06-22T09:19:52;12.20;;;10.90;;
37701;SDS011;23548;51.196;6.838;2023-06-22T09:22:18;10.15;;;8.88;;
37701;SDS011;23548;51.196;6.838;2023-06-22T09:24:43;10.15;;;9.15;;
37701;SDS011;23548;51.196;6.838;2023-06-22T09:27:09;9.48;;;8.48;;
37701;SDS011;23548;51.196;6.838;2023-06-22T09:29:35;9.95;;;8.73;;
37701;SDS011;23548;51.196;6.838;2023-06-22T09:32:01;8.48;;;7.65;;
37701;SDS011;23548;51.196;6.838;2023-06-22T09:34:26;9.57;;;7.80;;
37701;SDS011;23548;51.196;6.838;2023-06-22T09:36:52;8.07;;;7.28;;
37701;SDS011;23548;51.196;6.838;2023-06-22T09:39:18;11.52;;;9.20;;
37701;SDS011;23548;51.196;6.838;2023-06-22T09:41:44;12.63;;;9.50;;
37701;SDS011;23548;51.196;6.838;2023-06-22T09:44:10;9.30;;;8.43;;
37701;SDS011;23548;51.196;6.838;2023-06-22T09:46:36;9.00;;;8.10;;
37701;SDS011;23548;51.196;6.838;2023-06-22T09:49:01;10.82;;;8.30;;
37701;SDS011;23548;51.196;6.838;2023-06-22T09:51:27;8.68;;;7.78;;
37701;SDS011;23548;51.196;6.838;2023-06-22T09:53:53;10.00;;;8.43;;
37701;SDS011;23548;51.196;6.838;2023-06-22T09:56:19;10.38;;;8.57;;
37701;SDS011;23548;51.196;6.838;2023-06-22T09:58:46;9.00;;;8.10;;
37701;SDS011;23548;51.196;6.838;2023-06-22T10:01:12;9.85;;;8.38;;
37701;SDS011;23548;51.196;6.838;2023-06-22T10:03:39;11.27;;;9.00;;
37701;SDS011;23548;51.196;6.838;2023-06-22T10:06:06;9.60;;;8.70;;
37701;SDS011;23548;51.196;6.838;2023-06-22T10:08:32;24.30;;;21.95;;
37701;SDS011;23548;51.196;6.838;2023-06-22T10:10:58;11.70;;;9.30;;
37701;SDS011;23548;51.196;6.838;2023-06-22T10:13:24;9.73;;;8.38;;
37701;SDS011;23548;51.196;6.838;2023-06-22T10:15:50;10.52;;;8.45;;
37701;SDS011;23548;51.196;6.838;2023-06-22T10:18:20;8.90;;;8.00;;
37701;SDS011;23548;51.196;6.838;2023-06-22T10:20:50;9.40;;;8.57;;
37701;SDS011;23548;51.196;6.838;2023-06-22T10:23:19;9.52;;;8.63;;
37701;SDS011;23548;51.196;6.838;2023-06-22T10:25:45;10.25;;;9.25;;
37701;SDS011;23548;51.196;6.838;2023-06-22T10:28:11;15.57;;;9.65;;
37701;SDS011;23548;51.196;6.838;2023-06-22T10:30:40;14.00;;;9.45;;
37701;SDS011;23548;51.196;6.838;2023-06-22T10:33:07;11.90;;;9.98;;
37701;SDS011;23548;51.196;6.838;2023-06-22T10:35:37;13.48;;;11.18;;
37701;SDS011;23548;51.196;6.838;2023-06-22T10:38:03;11.25;;;10.15;;
37701;SDS011;23548;51.196;6.838;2023-06-22T10:40:29;12.88;;;10.48;;
37701;SDS011;23548;51.196;6.838;2023-06-22T10:42:54;12.48;;;9.80;;
37701;SDS011;23548;51.196;6.838;2023-06-22T10:45:20;14.52;;;11.13;;
37701;SDS011;23548;51.196;6.838;2023-06-22T10:47:46;18.67;;;11.55;;
37701;SDS011;23548;51.196;6.838;2023-06-22T10:50:12;15.15;;;11.82;;
37701;SDS011;23548;51.196;6.838;2023-06-22T10:52:39;18.70;;;13.75;;
37701;SDS011;23548;51.196;6.838;2023-06-22T10:55:06;23.73;;;16.42;;
37701;SDS011;23548;51.196;6.838;2023-06-22T10:57:33;27.13;;;16.30;;
37701;SDS011;23548;51.196;6.838;2023-06-22T10:59:59;23.98;;;17.15;;
37701;SDS011;23548;51.196;6.838;2023-06-22T11:02:24;27.38;;;17.02;;
37701;SDS011;23548;51.196;6.838;2023-06-22T11:04:53;28.75;;;18.83;;
37701;SDS011;23548;51.196;6.838;2023-06-22T11:07:18;27.17;;;18.98;;
37701;SDS011;23548;51.196;6.838;2023-06-22T11:09:44;25.83;;;18.42;;
37701;SDS011;23548;51.196;6.838;2023-06-22T11:12:10;25.20;;;20.02;;
37701;SDS011;23548;51.196;6.838;2023-06-22T11:14:36;25.17;;;19.83;;
37701;SDS011;23548;51.196;6.838;2023-06-22T11:17:02;23.10;;;20.73;;
37701;SDS011;23548;51.196;6.838;2023-06-22T11:19:28;26.10;;;21.90;;
37701;SDS011;23548;51.196;6.838;2023-06-22T11:21:53;30.98;;;21.98;;
37701;SDS011;23548;51.196;6.838;2023-06-22T11:24:19;30.13;;;22.65;;
37701;SDS011;23548;51.196;6.838;2023-06-22T11:26:45;31.40;;;22.20;;
37701;SDS011;23548;51.196;6.838;2023-06-22T11:29:11;30.08;;;23.02;;
37701;SDS011;23548;51.196;6.838;2023-06-22T11:31:36;25.52;;;21.23;;
37701;SDS011;23548;51.196;6.838;2023-06-22T11:34:03;25.90;;;20.77;;
37701;SDS011;23548;51.196;6.838;2023-06-22T11:36:29;28.77;;;22.95;;
37701;SDS011;23548;51.196;6.838;2023-06-22T11:38:58;31.15;;;23.45;;
37701;SDS011;23548;51.196;6.838;2023-06-22T11:41:24;28.38;;;23.42;;
37701;SDS011;23548;51.196;6.838;2023-06-22T11:43:50;30.38;;;24.50;;
37701;SDS011;23548;51.196;6.838;2023-06-22T11:46:16;32.25;;;25.67;;
37701;SDS011;23548;51.196;6.838;2023-06-22T11:48:42;31.92;;;26.08;;
37701;SDS011;23548;51.196;6.838;2023-06-22T11:51:08;22.85;;;19.52;;
37701;SDS011;23548;51.196;6.838;2023-06-22T11:53:34;24.42;;;19.75;;
37701;SDS011;23548;51.196;6.838;2023-06-22T11:56:00;21.38;;;19.08;;
37701;SDS011;23548;51.196;6.838;2023-06-22T11:58:27;20.08;;;16.75;;
37701;SDS011;23548;51.196;6.838;2023-06-22T12:00:54;17.10;;;14.20;;
37701;SDS011;23548;51.196;6.838;2023-06-22T12:03:20;21.45;;;16.33;;
37701;SDS011;23548;51.196;6.838;2023-06-22T12:05:49;20.30;;;17.17;;
37701;SDS011;23548;51.196;6.838;2023-06-22T12:08:17;20.45;;;18.25;;
37701;SDS011;23548;51.196;6.838;2023-06-22T12:10:43;22.73;;;18.83;;
37701;SDS011;23548;51.196;6.838;2023-06-22T12:13:09;22.10;;;19.63;;
37701;SDS011;23548;51.196;6.838;2023-06-22T12:15:35;24.55;;;21.23;;
37701;SDS011;23548;51.196;6.838;2023-06-22T12:18:01;27.52;;;24.63;;
37701;SDS011;23548;51.196;6.838;2023-06-22T12:20:27;29.85;;;25.63;;
37701;SDS011;23548;51.196;6.838;2023-06-22T12:22:53;32.15;;;26.55;;
37701;SDS011;23548;51.196;6.838;2023-06-22T12:25:21;30.67;;;26.42;;
37701;SDS011;23548;51.196;6.838;2023-06-22T12:27:47;29.02;;;25.63;;
37701;SDS011;23548;51.196;6.838;2023-06-22T12:30:13;32.42;;;27.05;;
37701;SDS011;23548;51.196;6.838;2023-06-22T12:32:39;29.33;;;26.15;;
37701;SDS011;23548;51.196;6.838;2023-06-22T12:35:05;40.72;;;28.27;;
37701;SDS011;23548;51.196;6.838;2023-06-22T12:37:36;36.58;;;27.80;;
37701;SDS011;23548;51.196;6.838;2023-06-22T12:40:03;34.25;;;28.95;;
37701;SDS011;23548;51.196;6.838;2023-06-22T12:42:29;40.63;;;30.85;;
37701;SDS011;23548;51.196;6.838;2023-06-22T12:44:55;29.35;;;26.20;;
37701;SDS011;23548;51.196;6.838;2023-06-22T12:47:21;29.88;;;24.92;;
37701;SDS011;23548;51.196;6.838;2023-06-22T12:49:47;26.50;;;22.23;;
37701;SDS011;23548;51.196;6.838;2023-06-22T12:52:12;27.73;;;22.98;;
37701;SDS011;23548;51.196;6.838;2023-06-22T12:54:38;24.33;;;21.83;;
37701;SDS011;23548;51.196;6.838;2023-06-22T12:57:04;27.35;;;23.08;;
37701;SDS011;23548;51.196;6.838;2023-06-22T12:59:30;28.65;;;23.15;;
37701;SDS011;23548;51.196;6.838;2023-06-22T13:01:55;32.50;;;22.67;;
37701;SDS011;23548;51.196;6.838;2023-06-22T13:04:21;25.80;;;22.55;;
37701;SDS011;23548;51.196;6.838;2023-06-22T13:06:47;56.65;;;25.83;;
37701;SDS011;23548;51.196;6.838;2023-06-22T13:09:17;33.65;;;23.52;;
37701;SDS011;23548;51.196;6.838;2023-06-22T13:11:43;27.63;;;24.55;;
37701;SDS011;23548;51.196;6.838;2023-06-22T13:14:09;35.28;;;24.23;;
37701;SDS011;23548;51.196;6.838;2023-06-22T13:16:35;50.92;;;26.48;;
37701;SDS011;23548;51.196;6.838;2023-06-22T13:19:00;34.38;;;27.05;;
37701;SDS011;23548;51.196;6.838;2023-06-22T13:21:26;35.08;;;26.15;;
37701;SDS011;23548;51.196;6.838;2023-06-22T13:23:52;42.35;;;26.50;;
37701;SDS011;23548;51.196;6.838;2023-06-22T13:26:18;30.08;;;26.23;;
37701;SDS011;23548;51.196;6.838;2023-06-22T13:28:43;31.40;;;23.85;;
37701;SDS011;23548;51.196;6.838;2023-06-22T13:31:09;25.58;;;22.77;;
37701;SDS011;23548;51.196;6.838;2023-06-22T13:33:35;27.33;;;22.75;;
37701;SDS011;23548;51.196;6.838;2023-06-22T13:36:03;24.67;;;22.02;;
37701;SDS011;23548;51.196;6.838;2023-06-22T13:38:29;24.35;;;21.83;;
37701;SDS011;23548;51.196;6.838;2023-06-22T13:40:56;23.95;;;21.35;;
37701;SDS011;23548;51.196;6.838;2023-06-22T13:43:24;25.55;;;22.55;;
37701;SDS011;23548;51.196;6.838;2023-06-22T13:45:51;25.63;;;21.50;;
37701;SDS011;23548;51.196;6.838;2023-06-22T13:48:17;24.13;;;20.65;;
37701;SDS011;23548;51.196;6.838;2023-06-22T13:50:43;20.30;;;18.02;;
37701;SDS011;23548;51.196;6.838;2023-06-22T13:53:09;19.88;;;17.77;;
37701;SDS011;23548;51.196;6.838;2023-06-22T13:55:34;20.95;;;17.80;;
37701;SDS011;23548;51.196;6.838;2023-06-22T13:58:00;19.02;;;15.75;;
37701;SDS011;23548;51.196;6.838;2023-06-22T14:00:26;19.95;;;17.95;;
37701;SDS011;23548;51.196;6.838;2023-06-22T14:02:53;18.30;;;16.33;;
37701;SDS011;23548;51.196;6.838;2023-06-22T14:05:19;17.55;;;15.35;;
37701;SDS011;23548;51.196;6.838;2023-06-22T14:07:45;18.48;;;16.35;;
37701;SDS011;23548;51.196;6.838;2023-06-22T14:10:11;21.05;;;16.15;;
37701;SDS011;23548;51.196;6.838;2023-06-22T14:12:36;19.45;;;16.02;;
37701;SDS011;23548;51.196;6.838;2023-06-22T14:15:02;22.58;;;17.30;;
37701;SDS011;23548;51.196;6.838;2023-06-22T14:17:28;18.10;;;16.30;;
37701;SDS011;23548;51.196;6.838;2023-06-22T14:19:54;17.88;;;15.00;;
37701;SDS011;23548;51.196;6.838;2023-06-22T14:22:21;17.55;;;15.75;;
37701;SDS011;23548;51.196;6.838;2023-06-22T14:24:47;18.20;;;16.30;;
37701;SDS011;23548;51.196;6.838;2023-06-22T14:27:13;19.40;;;17.45;;
37701;SDS011;23548;51.196;6.838;2023-06-22T14:29:39;20.23;;;17.70;;
37701;SDS011;23548;51.196;6.838;2023-06-22T14:32:06;20.23;;;16.80;;
37701;SDS011;23548;51.196;6.838;2023-06-22T14:34:32;20.00;;;17.77;;
37701;SDS011;23548;51.196;6.838;2023-06-22T14:37:01;20.20;;;18.08;;
37701;SDS011;23548;51.196;6.838;2023-06-22T14:39:27;21.80;;;19.08;;
37701;SDS011;23548;51.196;6.838;2023-06-22T14:41:53;20.50;;;18.40;;